Time;durP1;ratioP1;P1;durP2;ratioP2;P2;SDS_P1;SDS_P2;PMS_P1;PMS_P2;Temp;Humidity;BMP_temperature;BMP_pressure;BME280_temperature;BME280_humidity;BME280_pressure;Samples;Min_cycle;Max_cycle;Signal;HPM_P1;HPM_P2
2024/03/31 00:01:54;;;;;;;13.80;9.90;;;;;;;9.20;100.00;100774.15;109512;1250;74778;-54
2024/03/31 00:04:22;;;;;;;12.70;8.60;;;;;;;9.21;100.00;100768.84;109518;1250;66951;-55
2024/03/31 00:06:50;;;;;;;12.60;8.70;;;;;;;9.25;100.00;100771.98;109486;1250;72796;-58
2024/03/31 00:09:18;;;;;;;10.60;8.10;;;;;;;9.33;100.00;100770.38;109480;1253;59747;-55
2024/03/31 00:11:45;;;;;;;12.90;9.40;;;;;;;9.39;100.00;100769.85;109500;1250;60825;-54
2024/03/31 00:14:12;;;;;;;12.00;9.30;;;;;;;9.46;100.00;100770.86;109494;1250;75484;-54
2024/03/31 00:16:40;;;;;;;13.10;8.70;;;;;;;9.53;100.00;100767.55;109519;1249;67032;-55
2024/03/31 00:19:07;;;;;;;11.70;8.60;;;;;;;9.59;100.00;100769.13;109419;1250;72757;-54
2024/03/31 00:21:35;;;;;;;15.80;10.30;;;;;;;9.64;100.00;100768.93;109471;1253;61794;-54
2024/03/31 00:24:02;;;;;;;12.60;9.40;;;;;;;9.70;100.00;100768.86;109467;1250;60129;-55
2024/03/31 00:26:30;;;;;;;12.10;8.50;;;;;;;9.79;100.00;100762.14;109519;1250;74303;-55
2024/03/31 00:28:57;;;;;;;12.60;9.00;;;;;;;9.86;100.00;100760.87;109492;1250;66787;-59
2024/03/31 00:31:25;;;;;;;11.80;9.20;;;;;;;9.91;100.00;100763.06;109451;1250;72863;-55
2024/03/31 00:33:52;;;;;;;12.90;8.80;;;;;;;9.95;100.00;100761.07;109479;1250;60244;-55
2024/03/31 00:36:20;;;;;;;13.50;9.50;;;;;;;9.98;100.00;100759.57;109437;1250;59826;-55
2024/03/31 00:38:47;;;;;;;12.40;8.70;;;;;;;9.98;100.00;100757.98;109509;1250;75685;-55
2024/03/31 00:41:15;;;;;;;13.40;9.10;;;;;;;9.96;100.00;100757.27;109478;1249;66221;-58
2024/03/31 00:43:42;;;;;;;14.20;10.10;;;;;;;9.95;100.00;100751.89;109476;1250;72658;-54
2024/03/31 00:46:10;;;;;;;12.90;9.10;;;;;;;9.95;100.00;100747.36;109420;1250;61809;-54
2024/03/31 00:48:37;;;;;;;12.80;8.90;;;;;;;9.97;100.00;100751.17;109440;1250;60121;-55
2024/03/31 00:51:04;;;;;;;12.30;8.90;;;;;;;9.97;100.00;100750.27;109551;1250;75635;-55
2024/03/31 00:53:32;;;;;;;11.70;8.40;;;;;;;9.97;100.00;100745.90;109439;1251;66173;-55
2024/03/31 00:55:59;;;;;;;12.40;8.90;;;;;;;9.99;100.00;100752.12;109523;1250;71413;-54
2024/03/31 00:58:28;;;;;;;11.80;8.50;;;;;;;10.01;100.00;100754.91;109429;1251;60115;-54
2024/03/31 01:00:56;;;;;;;11.70;8.40;;;;;;;10.01;100.00;100756.45;109523;1250;59847;-55
2024/03/31 01:03:27;;;;;;;12.40;8.60;;;;;;;10.03;100.00;100757.60;109428;1250;75431;-58
2024/03/31 01:05:56;;;;;;;12.70;8.80;;;;;;;10.05;100.00;100756.95;109476;1250;65773;-55
2024/03/31 01:08:26;;;;;;;11.40;8.80;;;;;;;10.06;100.00;100755.89;109469;1250;72676;-55
2024/03/31 01:10:54;;;;;;;11.70;8.50;;;;;;;10.09;100.00;100761.89;109482;1251;60311;-55
2024/03/31 01:13:21;;;;;;;12.90;9.20;;;;;;;10.09;100.00;100762.51;109238;1250;60377;-57
2024/03/31 01:15:52;;;;;;;15.80;10.00;;;;;;;10.11;100.00;100761.97;109431;1250;75525;-55
2024/03/31 01:18:19;;;;;;;12.70;9.10;;;;;;;10.10;100.00;100765.59;109523;1251;66301;-54
2024/03/31 01:20:47;;;;;;;13.10;8.70;;;;;;;10.09;100.00;100763.42;109403;1249;72893;-55
2024/03/31 01:23:15;;;;;;;13.30;8.60;;;;;;;10.08;100.00;100761.46;109433;1250;60062;-58
2024/03/31 01:25:43;;;;;;;12.20;9.50;;;;;;;10.04;100.00;100762.86;109459;1256;59851;-54
2024/03/31 01:28:10;;;;;;;13.30;9.60;;;;;;;9.98;100.00;100767.48;109472;1250;74233;-55
2024/03/31 01:30:38;;;;;;;13.10;8.20;;;;;;;9.92;100.00;100768.70;109525;1251;67099;-55
2024/03/31 01:33:05;;;;;;;11.80;8.80;;;;;;;9.83;100.00;100766.85;109429;1250;72972;-55
2024/03/31 01:35:32;;;;;;;15.20;9.30;;;;;;;9.73;100.00;100768.01;109414;1251;60464;-56
2024/03/31 01:38:00;;;;;;;12.50;9.30;;;;;;;9.62;100.00;100765.93;109522;1251;59758;-54
2024/03/31 01:40:27;;;;;;;12.60;8.50;;;;;;;9.50;100.00;100770.05;109446;1250;75520;-55
2024/03/31 01:42:55;;;;;;;13.60;8.50;;;;;;;9.39;100.00;100767.73;109459;1251;67126;-55
2024/03/31 01:45:22;;;;;;;13.20;9.50;;;;;;;9.32;100.00;100769.92;109447;1250;71802;-55
2024/03/31 01:47:50;;;;;;;12.50;9.40;;;;;;;9.21;100.00;100768.61;109405;1250;59767;-57
2024/03/31 01:50:17;;;;;;;13.00;9.60;;;;;;;9.11;100.00;100775.63;109483;1251;60193;-55
2024/03/31 01:52:45;;;;;;;14.70;9.70;;;;;;;9.02;100.00;100772.35;109489;1250;75489;-55
2024/03/31 01:55:12;;;;;;;14.70;10.10;;;;;;;8.94;100.00;100773.73;109457;1250;66973;-55
2024/03/31 01:57:40;;;;;;;16.20;10.90;;;;;;;8.86;100.00;100773.40;109420;1251;72704;-58
2024/03/31 02:00:08;;;;;;;17.60;10.20;;;;;;;8.80;100.00;100775.42;109412;1250;60116;-55
2024/03/31 02:02:41;;;;;;;15.70;10.10;;;;;;;8.73;100.00;100771.05;109525;1256;59826;-54
2024/03/31 02:05:08;;;;;;;17.50;10.90;;;;;;;8.67;100.00;100770.81;109405;1256;74253;-55
2024/03/31 02:07:36;;;;;;;16.60;10.40;;;;;;;8.62;100.00;100771.37;109425;1250;66972;-54
2024/03/31 02:10:04;;;;;;;14.00;9.90;;;;;;;8.54;100.00;100775.92;109461;1251;72517;-59
2024/03/31 02:12:37;;;;;;;12.50;8.70;;;;;;;8.45;100.00;100780.02;109454;1253;59830;-55
2024/03/31 02:15:05;;;;;;;12.70;8.90;;;;;;;8.36;100.00;100779.51;109506;1249;59903;-55
2024/03/31 02:17:32;;;;;;;14.30;9.40;;;;;;;8.29;100.00;100782.48;109508;1250;74263;-54
2024/03/31 02:20:00;;;;;;;11.80;9.10;;;;;;;8.21;100.00;100782.70;109412;1251;67092;-58
2024/03/31 02:22:27;;;;;;;12.70;9.20;;;;;;;8.17;100.00;100784.05;109454;1251;73451;-54
2024/03/31 02:24:54;;;;;;;14.30;9.60;;;;;;;8.13;100.00;100787.49;109408;1250;59762;-55
2024/03/31 02:27:22;;;;;;;13.00;9.30;;;;;;;8.11;100.00;100788.29;109397;1250;60256;-55
2024/03/31 02:29:49;;;;;;;14.40;10.30;;;;;;;8.09;100.00;100791.98;109509;1250;74193;-54
2024/03/31 02:32:17;;;;;;;16.30;10.60;;;;;;;8.06;100.00;100794.30;109436;1251;67391;-57
2024/03/31 02:34:44;;;;;;;14.90;9.80;;;;;;;8.03;100.00;100794.90;109479;1249;72661;-54
2024/03/31 02:37:12;;;;;;;16.80;10.90;;;;;;;7.98;100.00;100794.71;109421;1250;60090;-55
2024/03/31 02:39:39;;;;;;;16.60;10.10;;;;;;;7.93;100.00;100795.58;109432;1249;59896;-54
2024/03/31 02:42:07;;;;;;;16.90;10.20;;;;;;;7.88;100.00;100798.66;109415;1251;74264;-55
2024/03/31 02:44:34;;;;;;;16.30;9.90;;;;;;;7.83;100.00;100797.64;109480;1251;66033;-55
2024/03/31 02:47:02;;;;;;;31.30;9.20;;;;;;;7.78;100.00;100800.52;109445;1251;71441;-55
2024/03/31 02:49:30;;;;;;;15.60;10.70;;;;;;;7.74;100.00;100804.40;109377;1254;60893;-54
2024/03/31 02:51:57;;;;;;;16.60;9.70;;;;;;;7.68;100.00;100802.41;109446;1250;59699;-55
2024/03/31 02:54:25;;;;;;;14.40;9.90;;;;;;;7.63;100.00;100802.86;109452;1251;75683;-59
2024/03/31 02:56:52;;;;;;;15.90;9.60;;;;;;;7.60;100.00;100808.57;109403;1251;66900;-54
2024/03/31 02:59:20;;;;;;;13.80;9.60;;;;;;;7.57;100.00;100810.16;109510;1251;72882;-55
2024/03/31 03:01:47;;;;;;;19.20;9.90;;;;;;;7.53;100.00;100807.96;109459;1250;59783;-55
2024/03/31 03:04:14;;;;;;;14.20;9.40;;;;;;;7.50;100.00;100810.92;109424;1251;60117;-55
2024/03/31 03:06:42;;;;;;;15.20;8.90;;;;;;;7.46;100.00;100811.39;109365;1251;74219;-55
2024/03/31 03:09:09;;;;;;;13.70;9.00;;;;;;;7.42;100.00;100814.23;109413;1251;65730;-54
2024/03/31 03:11:37;;;;;;;13.60;9.10;;;;;;;7.38;100.00;100813.77;109472;1252;72685;-54
2024/03/31 03:14:04;;;;;;;14.70;10.30;;;;;;;7.35;100.00;100819.31;109363;1251;59764;-55
2024/03/31 03:16:32;;;;;;;14.20;9.00;;;;;;;7.33;100.00;100820.20;109388;1251;60074;-56
2024/03/31 03:19:00;;;;;;;15.60;9.20;;;;;;;7.32;100.00;100820.42;109419;1251;75459;-54
2024/03/31 03:21:27;;;;;;;15.00;9.60;;;;;;;7.32;100.00;100827.30;109456;1251;66109;-55
2024/03/31 03:23:54;;;;;;;17.00;9.00;;;;;;;7.32;100.00;100833.53;109496;1251;70985;-55
2024/03/31 03:26:22;;;;;;;14.30;9.80;;;;;;;7.35;100.00;100833.10;109372;1254;60190;-56
2024/03/31 03:28:49;;;;;;;14.20;8.90;;;;;;;7.38;100.00;100830.54;109408;1250;59795;-55
2024/03/31 03:31:17;;;;;;;14.20;9.10;;;;;;;7.44;100.00;100836.36;109413;1251;75453;-55
2024/03/31 03:33:48;;;;;;;15.30;9.10;;;;;;;7.52;100.00;100838.84;109417;1251;66312;-55
2024/03/31 03:36:15;;;;;;;13.10;9.00;;;;;;;7.62;100.00;100836.55;109406;1251;71098;-55
2024/03/31 03:38:45;;;;;;;14.60;9.50;;;;;;;7.72;100.00;100838.19;109388;1251;61233;-59
2024/03/31 03:41:16;;;;;;;13.30;8.60;;;;;;;7.84;100.00;100838.67;109225;1252;60116;-55
2024/03/31 03:43:43;;;;;;;13.40;8.70;;;;;;;8.00;100.00;100838.98;109388;1251;75466;-55
2024/03/31 03:46:11;;;;;;;13.30;8.20;;;;;;;8.17;100.00;100841.98;109451;1251;65871;-55
2024/03/31 03:48:38;;;;;;;14.60;8.20;;;;;;;8.44;100.00;100840.40;109315;1251;72774;-56
2024/03/31 03:51:06;;;;;;;13.80;8.00;;;;;;;8.85;100.00;100842.12;109365;1251;60938;-55
2024/03/31 03:53:33;;;;;;;12.40;8.40;;;;;;;9.33;100.00;100844.42;109433;1251;59898;-55
2024/03/31 03:56:00;;;;;;;11.60;7.60;;;;;;;9.75;100.00;100837.20;109384;1251;75488;-55
2024/03/31 03:58:28;;;;;;;11.00;8.20;;;;;;;10.19;100.00;100838.06;109364;1251;67328;-54
2024/03/31 04:00:56;;;;;;;14.70;8.50;;;;;;;10.81;100.00;100836.15;109402;1253;72753;-56
2024/03/31 04:03:24;;;;;;;11.90;7.60;;;;;;;11.51;100.00;100829.53;109430;1253;60076;-55
2024/03/31 04:05:55;;;;;;;12.10;7.50;;;;;;;12.10;100.00;100822.55;109375;1251;59687;-54
2024/03/31 04:08:22;;;;;;;13.00;7.50;;;;;;;12.50;100.00;100816.46;109379;1251;75858;-54
2024/03/31 04:10:50;;;;;;;10.50;7.80;;;;;;;12.71;100.00;100812.14;109402;1251;66000;-56
2024/03/31 04:13:17;;;;;;;10.30;7.50;;;;;;;12.89;100.00;100805.35;109357;1251;72034;-55
2024/03/31 04:15:55;;;;;;;10.80;7.20;;;;;;;13.15;100.00;100801.48;109383;1251;60287;-56
2024/03/31 04:18:23;;;;;;;8.10;5.70;;;;;;;13.60;100.00;100794.61;109313;1251;59717;-55
2024/03/31 04:20:50;;;;;;;9.60;6.50;;;;;;;14.06;100.00;100792.47;109346;1251;75586;-58
2024/03/31 04:23:19;;;;;;;10.80;6.00;;;;;;;14.50;100.00;100786.23;109415;1251;66124;-55
2024/03/31 04:25:47;;;;;;;9.40;5.80;;;;;;;14.93;100.00;100789.36;109353;1251;72761;-57
2024/03/31 04:28:15;;;;;;;10.00;6.30;;;;;;;15.37;100.00;100787.73;109448;1251;59716;-55
2024/03/31 04:30:42;;;;;;;8.90;5.50;;;;;;;15.85;100.00;100781.46;109401;1251;60038;-56
2024/03/31 04:33:10;;;;;;;9.60;5.80;;;;;;;16.39;100.00;100783.84;109420;1251;75995;-56
2024/03/31 04:35:38;;;;;;;9.60;6.00;;;;;;;16.91;100.00;100780.45;109498;1251;67940;-54
2024/03/31 04:38:05;;;;;;;8.10;6.10;;;;;;;17.39;100.00;100778.63;109407;1251;72574;-55
2024/03/31 04:40:33;;;;;;;9.20;6.10;;;;;;;17.92;96.65;100778.17;109400;1251;59808;-55
2024/03/31 04:43:00;;;;;;;10.50;6.30;;;;;;;18.34;86.01;100777.48;109375;1251;60202;-55
2024/03/31 04:45:31;;;;;;;10.10;6.20;;;;;;;18.66;76.88;100773.23;109380;1251;75544;-55
2024/03/31 04:48:02;;;;;;;12.40;5.90;;;;;;;18.96;71.60;100776.33;109425;1251;67556;-55
2024/03/31 04:50:30;;;;;;;9.20;6.00;;;;;;;19.29;67.28;100773.32;109387;1251;72995;-55
2024/03/31 04:52:58;;;;;;;9.30;6.30;;;;;;;19.62;62.15;100771.52;109322;1251;60818;-55
2024/03/31 04:55:26;;;;;;;9.80;5.80;;;;;;;19.90;58.81;100771.67;109300;1251;59733;-55
2024/03/31 04:57:55;;;;;;;7.90;6.20;;;;;;;20.20;55.15;100769.85;109325;1254;74147;-55
2024/03/31 05:00:23;;;;;;;8.40;6.30;;;;;;;20.48;52.44;100774.60;109441;1251;67137;-55
2024/03/31 05:02:50;;;;;;;9.20;6.50;;;;;;;20.74;49.87;100776.27;109340;1251;72714;-55
2024/03/31 05:05:17;;;;;;;8.00;6.10;;;;;;;20.95;47.70;100773.09;109348;1249;60181;-56
2024/03/31 05:07:45;;;;;;;9.00;6.00;;;;;;;21.14;46.40;100772.10;109458;1251;60222;-56
2024/03/31 05:10:12;;;;;;;7.00;5.30;;;;;;;21.39;45.23;100768.96;109510;1250;75561;-55
2024/03/31 05:12:40;;;;;;;9.80;5.90;;;;;;;21.65;44.00;100768.60;109446;1251;66862;-56
2024/03/31 05:15:07;;;;;;;8.80;6.10;;;;;;;21.90;42.71;100767.40;109361;1251;72748;-57
2024/03/31 05:17:35;;;;;;;8.00;5.90;;;;;;;22.12;41.99;100765.08;109440;1250;60581;-54
2024/03/31 05:20:02;;;;;;;10.00;6.40;;;;;;;22.27;40.61;100766.77;109377;1250;60048;-54
2024/03/31 05:22:30;;;;;;;10.20;5.70;;;;;;;22.27;39.80;100762.37;109558;1250;74276;-54
2024/03/31 05:24:58;;;;;;;8.10;5.50;;;;;;;22.11;39.37;100762.69;109382;1250;66777;-58
2024/03/31 05:27:25;;;;;;;9.00;5.90;;;;;;;21.85;39.36;100765.89;109370;1250;71277;-55
2024/03/31 05:29:53;;;;;;;8.30;5.20;;;;;;;21.52;39.65;100771.95;109412;1250;60304;-55
2024/03/31 05:32:20;;;;;;;6.70;5.20;;;;;;;21.21;40.66;100771.55;109467;1250;60070;-55
2024/03/31 05:34:57;;;;;;;8.40;5.10;;;;;;;21.08;41.10;100774.42;109468;1250;74228;-56
2024/03/31 05:37:25;;;;;;;7.30;4.80;;;;;;;20.96;40.74;100775.33;109371;1250;66095;-56
2024/03/31 05:39:52;;;;;;;7.10;4.40;;;;;;;20.84;40.69;100778.63;109383;1250;73201;-55
2024/03/31 05:42:20;;;;;;;7.80;4.60;;;;;;;20.67;40.55;100776.94;109384;1250;60065;-55
2024/03/31 05:44:48;;;;;;;7.50;4.60;;;;;;;20.38;40.74;100776.06;109377;1250;61612;-55
2024/03/31 05:47:15;;;;;;;9.10;4.50;;;;;;;20.11;41.86;100772.91;109363;1249;74169;-57
2024/03/31 05:49:43;;;;;;;7.60;4.60;;;;;;;20.01;42.58;100773.64;109455;1250;66050;-56
2024/03/31 05:52:10;;;;;;;7.70;4.70;;;;;;;20.04;43.18;100772.94;109491;1250;71804;-57
2024/03/31 05:54:38;;;;;;;8.80;4.20;;;;;;;20.13;43.67;100773.48;109490;1253;59747;-56
2024/03/31 05:57:05;;;;;;;8.30;3.60;;;;;;;20.30;43.30;100772.98;109340;1250;60174;-58
2024/03/31 05:59:33;;;;;;;7.50;3.50;;;;;;;20.47;43.28;100776.01;109379;1250;74255;-58
2024/03/31 06:02:00;;;;;;;6.90;3.50;;;;;;;20.68;42.86;100774.52;109395;1250;67438;-58
2024/03/31 06:04:28;;;;;;;8.10;2.90;;;;;;;20.90;42.31;100773.36;109401;1249;73182;-57
2024/03/31 06:06:56;;;;;;;5.00;2.60;;;;;;;21.09;40.90;100771.55;109348;1249;60319;-57
2024/03/31 06:09:23;;;;;;;5.50;2.90;;;;;;;21.20;40.02;100767.31;109326;1250;59834;-56
2024/03/31 06:11:52;;;;;;;6.20;3.10;;;;;;;21.25;39.70;100767.91;109405;1250;75658;-55
2024/03/31 06:14:20;;;;;;;5.60;2.80;;;;;;;21.33;39.74;100769.85;109471;1250;65763;-56
2024/03/31 06:16:48;;;;;;;6.10;3.40;;;;;;;21.46;39.33;100769.48;109469;1250;72823;-56
2024/03/31 06:19:15;;;;;;;6.40;2.70;;;;;;;21.58;38.81;100771.68;109392;1251;59780;-59
2024/03/31 06:21:42;;;;;;;9.50;3.80;;;;;;;21.67;38.85;100770.58;109382;1249;60244;-57
2024/03/31 06:24:10;;;;;;;4.40;2.60;;;;;;;21.83;39.18;100769.69;109519;1250;75521;-55
2024/03/31 06:26:38;;;;;;;4.60;2.00;;;;;;;22.14;38.23;100769.94;109496;1250;65653;-56
2024/03/31 06:29:05;;;;;;;5.40;2.60;;;;;;;22.49;37.52;100768.08;109469;1250;73430;-56
2024/03/31 06:31:33;;;;;;;4.20;2.60;;;;;;;22.83;36.60;100773.27;109291;1250;60099;-56
2024/03/31 06:34:04;;;;;;;3.30;2.20;;;;;;;23.17;35.77;100772.77;109370;1249;60254;-57
2024/03/31 06:36:31;;;;;;;3.90;2.00;;;;;;;23.58;35.07;100770.73;109398;1250;74704;-56
2024/03/31 06:38:59;;;;;;;3.90;2.10;;;;;;;24.04;34.38;100773.39;109374;1249;67154;-55
2024/03/31 06:41:26;;;;;;;4.60;2.40;;;;;;;24.56;33.77;100770.44;109385;1250;71487;-58
2024/03/31 06:43:54;;;;;;;3.90;2.00;;;;;;;25.11;33.19;100778.05;109429;1251;60117;-58
2024/03/31 06:46:22;;;;;;;5.20;2.10;;;;;;;25.55;31.73;100784.46;109362;1250;61092;-58
2024/03/31 06:48:50;;;;;;;3.60;2.20;;;;;;;25.75;31.41;100785.45;109468;1250;74237;-59
2024/03/31 06:51:17;;;;;;;3.90;2.00;;;;;;;25.91;31.26;100786.01;109332;1250;65674;-59
2024/03/31 06:53:50;;;;;;;4.20;2.00;;;;;;;26.10;30.87;100788.61;109340;1253;73882;-57
2024/03/31 06:56:18;;;;;;;5.50;2.20;;;;;;;26.28;30.48;100781.05;109370;1250;60499;-56
2024/03/31 06:58:45;;;;;;;3.60;1.50;;;;;;;26.28;30.36;100785.06;109373;1250;60235;-57
2024/03/31 07:01:14;;;;;;;4.20;1.60;;;;;;;26.35;30.49;100785.90;109395;1250;75481;-55
2024/03/31 07:03:42;;;;;;;4.10;1.40;;;;;;;26.57;30.39;100780.80;109533;1249;67323;-56
2024/03/31 07:06:09;;;;;;;4.70;2.40;;;;;;;26.72;30.28;100782.80;109367;1250;72135;-56
2024/03/31 07:08:39;;;;;;;3.60;1.80;;;;;;;26.95;29.92;100785.80;109358;1249;59739;-56
2024/03/31 07:11:07;;;;;;;3.80;1.60;;;;;;;27.15;29.73;100785.11;109532;1250;60020;-55
2024/03/31 07:13:34;;;;;;;3.20;1.60;;;;;;;27.38;29.41;100785.56;109360;1250;74268;-55
2024/03/31 07:16:02;;;;;;;4.60;2.10;;;;;;;27.54;29.19;100783.86;109404;1250;66981;-55
2024/03/31 07:18:30;;;;;;;4.50;2.60;;;;;;;27.66;29.06;100785.88;109488;1250;72797;-55
2024/03/31 07:20:57;;;;;;;10.50;5.60;;;;;;;27.89;28.73;100783.08;109333;1253;59749;-55
2024/03/31 07:23:25;;;;;;;8.90;3.80;;;;;;;28.01;27.87;100782.83;109283;1249;60157;-56
2024/03/31 07:25:54;;;;;;;8.00;3.50;;;;;;;28.01;28.05;100779.94;109394;1249;74249;-55
2024/03/31 07:28:22;;;;;;;4.80;2.20;;;;;;;28.08;27.88;100780.98;109487;1250;65817;-56
2024/03/31 07:30:49;;;;;;;5.90;2.50;;;;;;;28.12;27.79;100783.98;109430;1253;71786;-56
2024/03/31 07:33:17;;;;;;;4.10;1.90;;;;;;;28.17;28.04;100781.98;109395;1250;60245;-57
2024/03/31 07:35:44;;;;;;;3.90;1.90;;;;;;;28.32;28.18;100780.82;109342;1250;59660;-54
2024/03/31 07:38:12;;;;;;;4.20;1.70;;;;;;;28.54;27.34;100784.04;109471;1250;75956;-55
2024/03/31 07:40:39;;;;;;;5.20;2.00;;;;;;;28.51;27.34;100785.30;109508;1249;66920;-56
2024/03/31 07:43:09;;;;;;;3.50;1.80;;;;;;;28.52;27.47;100781.21;109489;1249;72728;-55
2024/03/31 07:45:36;;;;;;;3.10;1.70;;;;;;;28.61;27.39;100779.27;109439;1249;60054;-56
2024/03/31 07:48:04;;;;;;;3.50;1.60;;;;;;;28.77;27.64;100773.38;109461;1250;60453;-55
2024/03/31 07:50:32;;;;;;;3.20;1.70;;;;;;;28.87;27.00;100777.80;109390;1250;75569;-55
2024/03/31 07:52:59;;;;;;;3.50;1.30;;;;;;;28.85;26.93;100777.88;109520;1250;67097;-55
2024/03/31 07:55:27;;;;;;;2.60;1.60;;;;;;;28.88;27.18;100779.16;109386;1252;74913;-59
2024/03/31 07:57:54;;;;;;;3.60;1.50;;;;;;;28.94;27.29;100780.31;109461;1250;61517;-55
2024/03/31 08:00:23;;;;;;;4.50;1.80;;;;;;;28.99;26.80;100779.66;109468;1249;60213;-55
2024/03/31 08:02:50;;;;;;;4.00;1.70;;;;;;;28.93;27.17;100782.31;109389;1250;75444;-55
2024/03/31 08:05:18;;;;;;;7.40;1.90;;;;;;;28.97;27.16;100782.20;109131;1249;65767;-55
2024/03/31 08:07:45;;;;;;;2.80;1.20;;;;;;;29.09;27.32;100780.25;109401;1250;73997;-56
2024/03/31 08:10:13;;;;;;;4.70;1.70;;;;;;;29.19;26.76;100784.16;109480;1252;60338;-55
2024/03/31 08:12:40;;;;;;;4.30;1.70;;;;;;;29.25;26.81;100786.04;109448;1250;59818;-55
2024/03/31 08:15:08;;;;;;;5.90;1.50;;;;;;;29.32;26.78;100781.95;109472;1249;65477;-55
2024/03/31 08:17:35;;;;;;;4.30;1.80;;;;;;;29.37;26.82;100779.71;109433;1253;66359;-56
2024/03/31 08:20:03;;;;;;;3.90;1.60;;;;;;;29.42;26.68;100780.27;109441;1250;66373;-55
2024/03/31 08:22:31;;;;;;;3.20;1.50;;;;;;;29.31;26.73;100782.07;109485;1250;60219;-55
2024/03/31 08:24:58;;;;;;;4.30;1.30;;;;;;;29.24;26.72;100782.66;109428;1250;59845;-55
2024/03/31 08:27:26;;;;;;;3.90;1.60;;;;;;;29.23;26.66;100775.55;109491;1249;76578;-57
2024/03/31 08:29:54;;;;;;;3.30;1.60;;;;;;;29.28;26.56;100777.99;109461;1250;65631;-56
2024/03/31 08:32:21;;;;;;;3.40;1.50;;;;;;;29.27;26.72;100777.31;109409;1250;63785;-56
2024/03/31 08:34:50;;;;;;;2.40;1.40;;;;;;;29.24;26.50;100771.67;109437;1249;60263;-55
2024/03/31 08:37:18;;;;;;;3.70;1.60;;;;;;;29.00;26.80;100770.25;109445;1249;60306;-56
2024/03/31 08:39:46;;;;;;;6.30;1.50;;;;;;;28.80;26.87;100772.15;109409;1249;76570;-56
2024/03/31 08:43:15;;;;;;;4.20;1.50;;;;;;;28.67;27.10;100770.75;109449;1250;59728;-55
2024/03/31 08:45:42;;;;;;;4.30;1.40;;;;;;;28.55;27.72;100773.88;108809;1260;74940;-55
2024/03/31 08:48:10;;;;;;;3.70;1.50;;;;;;;28.72;27.62;100776.73;108753;1259;60269;-57
2024/03/31 08:50:39;;;;;;;2.40;1.20;;;;;;;28.97;27.23;100773.23;109123;1250;61469;-57
2024/03/31 08:53:07;;;;;;;4.30;2.70;;;;;;;29.06;26.76;100772.27;109435;1250;67715;-57
2024/03/31 08:55:34;;;;;;;4.20;2.10;;;;;;;29.06;26.86;100772.95;109571;1250;60748;-56
2024/03/31 08:58:02;;;;;;;3.50;1.90;;;;;;;29.10;26.94;100771.21;109390;1250;62531;-56
2024/03/31 09:00:29;;;;;;;3.20;1.60;;;;;;;29.11;27.02;100774.52;109435;1250;59866;-56
2024/03/31 09:02:57;;;;;;;3.20;1.70;;;;;;;29.06;27.25;100773.71;109318;1249;62418;-59
2024/03/31 09:05:24;;;;;;;3.70;1.50;;;;;;;29.14;27.14;100774.10;109442;1250;76914;-56
2024/03/31 09:07:52;;;;;;;4.10;1.40;;;;;;;29.26;26.89;100774.64;109444;1250;67077;-56
2024/03/31 09:10:19;;;;;;;4.70;1.70;;;;;;;29.39;26.80;100776.67;109341;1249;75133;-56
2024/03/31 09:12:48;;;;;;;4.00;1.70;;;;;;;29.46;26.41;100774.23;109481;1249;60276;-60
2024/03/31 09:15:16;;;;;;;3.80;1.80;;;;;;;29.33;26.30;100778.93;109424;1252;59971;-56
2024/03/31 09:17:43;;;;;;;3.10;1.20;;;;;;;29.18;26.39;100776.56;109515;1250;66546;-57
2024/03/31 09:20:11;;;;;;;3.50;1.60;;;;;;;29.05;26.71;100772.86;109491;1249;67138;-58
2024/03/31 09:22:40;;;;;;;3.30;1.70;;;;;;;28.85;26.56;100770.23;109423;1250;72735;-58
2024/03/31 09:25:08;;;;;;;6.50;1.40;;;;;;;28.69;27.17;100772.71;109470;1252;62981;-54
2024/03/31 09:27:36;;;;;;;4.30;1.30;;;;;;;28.73;27.24;100771.52;109497;1249;62617;-57
2024/03/31 09:30:07;;;;;;;3.30;1.30;;;;;;;28.93;27.01;100773.29;109506;1249;76719;-58
2024/03/31 09:32:34;;;;;;;;;;;;;;;29.10;26.68;100767.89;109453;1250;61016;-57
2024/03/31 09:35:02;;;;;;;2.00;1.20;;;;;;;29.17;26.63;100777.65;109481;1250;74489;-55
2024/03/31 09:37:30;;;;;;;3.20;1.50;;;;;;;29.22;26.31;100777.84;109466;1249;62220;-55
2024/03/31 09:39:57;;;;;;;3.60;1.50;;;;;;;29.10;26.12;100775.67;109524;1250;59846;-55
2024/03/31 09:42:25;;;;;;;4.20;1.60;;;;;;;28.95;26.71;100772.66;109528;1249;76807;-58
2024/03/31 09:44:52;;;;;;;2.90;1.60;;;;;;;28.97;26.64;100771.95;109434;1250;65651;-58
2024/03/31 09:47:31;;;;;;;6.50;1.80;;;;;;;29.07;26.90;100775.66;109490;1250;74125;-56
2024/03/31 09:50:11;;;;;;;5.10;1.70;;;;;;;29.19;26.81;100775.63;109466;1250;59793;-56
2024/03/31 09:52:43;;;;;;;5.60;1.80;;;;;;;29.37;26.65;100770.21;109423;1249;62138;-59
2024/03/31 09:55:12;;;;;;;3.20;1.60;;;;;;;29.51;26.52;100772.05;109426;1249;66601;-56
2024/03/31 09:57:44;;;;;;;11.90;2.10;;;;;;;29.61;26.35;100769.30;109520;1250;69536;-56
2024/03/31 10:00:15;;;;;;;4.60;2.00;;;;;;;29.63;25.81;100768.55;109473;1249;75024;-56
2024/03/31 10:02:51;;;;;;;3.80;1.30;;;;;;;29.45;25.97;100765.97;109402;1250;60339;-59
2024/03/31 10:05:24;;;;;;;3.70;1.70;;;;;;;29.19;26.40;100766.93;109464;1250;62128;-55
2024/03/31 10:07:52;;;;;;;8.50;2.60;;;;;;;28.98;26.56;100762.77;109466;1249;68641;-56
2024/03/31 10:10:20;;;;;;;4.80;2.60;;;;;;;28.76;26.95;100759.65;109446;1250;69453;-56
2024/03/31 10:12:49;;;;;;;3.80;1.40;;;;;;;28.57;27.14;100759.52;109493;1249;75006;-56
2024/03/31 10:15:16;;;;;;;2.60;1.40;;;;;;;28.42;27.22;100762.91;109313;1250;61152;-57
2024/03/31 10:17:44;;;;;;;5.20;2.90;;;;;;;28.50;27.63;100759.00;109389;1250;62576;-56
2024/03/31 10:20:12;;;;;;;4.20;1.70;;;;;;;28.66;27.29;100752.95;109421;1250;69072;-56
2024/03/31 10:22:41;;;;;;;3.90;1.80;;;;;;;28.89;27.22;100753.13;109345;1249;68889;-58
2024/03/31 10:25:09;;;;;;;3.30;1.70;;;;;;;29.19;27.05;100750.60;109419;1250;75354;-58
2024/03/31 10:27:39;;;;;;;5.80;3.00;;;;;;;29.34;26.66;100742.80;109482;1250;61889;-57
2024/03/31 10:30:07;;;;;;;6.80;2.50;;;;;;;29.30;26.38;100750.02;109452;1249;62544;-58
2024/03/31 10:32:35;;;;;;;3.50;1.90;;;;;;;29.24;26.64;100745.05;109426;1249;76489;-62
2024/03/31 10:35:04;;;;;;;5.80;2.20;;;;;;;29.34;26.55;100744.80;109447;1250;70066;-57
2024/03/31 10:37:32;;;;;;;6.10;1.80;;;;;;;29.51;26.46;100738.95;109502;1250;66006;-54
2024/03/31 10:40:01;;;;;;;9.60;4.60;;;;;;;29.57;26.35;100735.52;109379;1250;59784;-54
2024/03/31 10:42:28;;;;;;;19.90;12.60;;;;;;;29.53;26.16;100738.58;109460;1250;59833;-54
2024/03/31 10:44:56;;;;;;;6.40;2.50;;;;;;;29.47;26.29;100740.53;109408;1250;68439;-54
2024/03/31 10:47:24;;;;;;;12.30;7.90;;;;;;;29.33;26.12;100735.48;109392;1255;69502;-55
2024/03/31 10:49:58;;;;;;;10.50;8.50;;;;;;;29.18;26.37;100740.05;109474;1250;65270;-54
2024/03/31 10:52:31;;;;;;;14.60;9.60;;;;;;;29.06;26.55;100737.41;109436;1250;61361;-60
2024/03/31 10:55:00;;;;;;;11.80;8.60;;;;;;;29.01;26.77;100734.16;109433;1250;62786;-55
2024/03/31 10:57:35;;;;;;;13.60;10.90;;;;;;;29.00;26.75;100731.02;109566;1250;77927;-54
2024/03/31 11:00:05;;;;;;;8.30;5.00;;;;;;;29.02;26.87;100725.52;109478;1250;69520;-55
2024/03/31 11:02:34;;;;;;;11.80;9.90;;;;;;;29.07;26.97;100728.21;109413;1252;73579;-55
2024/03/31 11:05:06;;;;;;;9.10;6.20;;;;;;;29.17;26.76;100729.91;109415;1250;60093;-54
2024/03/31 11:07:38;;;;;;;12.30;9.90;;;;;;;29.18;26.77;100718.66;109438;1250;61563;-54
2024/03/31 11:10:06;;;;;;;25.30;22.60;;;;;;;29.16;26.91;100719.84;109460;1250;65341;-54
2024/03/31 11:12:35;;;;;;;10.70;6.20;;;;;;;29.19;26.94;100718.77;109428;1250;69702;-56
2024/03/31 11:15:03;;;;;;;7.10;5.60;;;;;;;29.21;26.90;100718.89;109269;1250;208323;-56
2024/03/31 11:17:30;;;;;;;9.40;7.60;;;;;;;29.24;27.08;100719.11;109466;1250;59797;-54